Time;durP1;ratioP1;P1;durP2;ratioP2;P2;SDS_P1;SDS_P2;PMS_P1;PMS_P2;Temp;Humidity;BMP_temperature;BMP_pressure;BME280_temperature;BME280_humidity;BME280_pressure;Samples;Min_cycle;Max_cycle;Signal;HPM_P1;HPM_P2
2021/09/07 00:02:05;;;;;;;12.45;11.15;;;;;;;17.22;91.65;100017.88;5072769;28;20186;-74
2021/09/07 00:04:31;;;;;;;13.65;12.05;;;;;;;17.34;91.55;100015.16;5092789;28;20182;-73
2021/09/07 00:06:59;;;;;;;11.15;10.05;;;;;;;17.47;89.94;100011.34;5092644;28;20208;-73
2021/09/07 00:09:25;;;;;;;12.20;10.93;;;;;;;17.27;90.77;100012.06;5092757;28;20193;-73
2021/09/07 00:11:52;;;;;;;14.80;11.80;;;;;;;17.05;92.19;100011.06;5093102;28;20239;-73
2021/09/07 00:14:19;;;;;;;12.75;11.45;;;;;;;16.92;93.84;100015.72;5092993;28;20517;-73
2021/09/07 00:16:45;;;;;;;13.93;11.95;;;;;;;16.78;94.73;100013.16;5092796;28;20626;-73
2021/09/07 00:19:13;;;;;;;12.95;11.65;;;;;;;16.75;95.57;100010.69;5092811;28;20676;-73
2021/09/07 00:21:40;;;;;;;11.70;10.48;;;;;;;16.67;95.90;100011.28;5093248;28;20646;-74
2021/09/07 00:24:07;;;;;;;13.25;11.80;;;;;;;16.77;95.68;100006.84;5092944;28;20739;-74
2021/09/07 00:26:33;;;;;;;12.60;11.32;;;;;;;16.81;94.79;100007.53;5092953;28;20506;-74
2021/09/07 00:29:00;;;;;;;16.55;11.55;;;;;;;16.78;94.71;100010.44;5092390;28;20255;-74
2021/09/07 00:31:26;;;;;;;12.35;11.05;;;;;;;16.85;93.84;100003.59;5094220;28;20207;-73
2021/09/07 00:33:53;;;;;;;13.07;11.60;;;;;;;16.83;94.17;100008.28;5096372;28;20514;-73
2021/09/07 00:36:21;;;;;;;13.00;11.63;;;;;;;16.75;94.41;100007.97;5096632;28;20508;-74
2021/09/07 00:38:47;;;;;;;13.32;11.10;;;;;;;16.70;94.84;100007.47;5096568;28;20544;-74
2021/09/07 00:41:14;;;;;;;14.15;11.15;;;;;;;16.59;96.36;100013.72;5096448;28;20619;-73
2021/09/07 00:43:41;;;;;;;16.15;11.88;;;;;;;16.59;96.22;100011.84;5096045;28;20204;-73
2021/09/07 00:46:08;;;;;;;19.73;12.23;;;;;;;16.47;96.55;100005.50;5096232;28;20204;-74
2021/09/07 00:48:35;;;;;;;12.70;11.40;;;;;;;16.55;96.58;100004.06;5096443;28;20187;-73
2021/09/07 00:51:01;;;;;;;12.98;11.52;;;;;;;16.41;97.30;100005.97;5096168;28;20180;-73
2021/09/07 00:53:29;;;;;;;13.70;11.70;;;;;;;16.42;97.12;100005.00;5095800;28;20291;-73
2021/09/07 00:55:58;;;;;;;13.40;11.60;;;;;;;16.45;97.06;100007.47;5096013;28;20267;-73
2021/09/07 00:58:30;;;;;;;15.30;11.57;;;;;;;16.33;97.49;99996.69;5095709;28;20208;-73
2021/09/07 01:00:56;;;;;;;13.35;11.95;;;;;;;16.37;97.28;99992.75;5096153;28;20266;-73
2021/09/07 01:03:23;;;;;;;14.57;12.48;;;;;;;16.24;97.95;99988.25;5095300;28;20220;-73
2021/09/07 01:05:50;;;;;;;13.98;11.60;;;;;;;16.13;99.55;100003.63;5096163;28;20210;-74
2021/09/07 01:08:17;;;;;;;17.50;12.27;;;;;;;15.99;100.00;99993.78;5096116;28;20188;-74
2021/09/07 01:10:44;;;;;;;13.63;12.23;;;;;;;16.13;100.00;99990.03;5095712;28;20203;-73
2021/09/07 01:13:11;;;;;;;13.05;11.60;;;;;;;16.15;98.93;99982.66;5095831;28;20199;-73
2021/09/07 01:15:38;;;;;;;13.48;12.27;;;;;;;16.26;98.34;99983.56;5095092;28;20191;-73
2021/09/07 01:18:05;;;;;;;12.88;11.57;;;;;;;16.33;97.04;99975.81;5095828;28;20184;-73
2021/09/07 01:20:31;;;;;;;13.48;12.07;;;;;;;16.27;96.57;99977.13;5095807;28;20626;-74
2021/09/07 01:22:58;;;;;;;14.38;12.85;;;;;;;15.99;98.72;99975.66;5095271;28;20230;-73
2021/09/07 01:25:26;;;;;;;16.30;12.50;;;;;;;15.95;99.63;99976.84;5095072;28;20202;-73
2021/09/07 01:27:53;;;;;;;12.80;11.60;;;;;;;15.84;100.00;99969.50;5095535;28;20180;-74
2021/09/07 01:30:19;;;;;;;14.40;13.00;;;;;;;15.80;100.00;99967.97;5095258;28;20271;-74
2021/09/07 01:32:46;;;;;;;12.80;11.50;;;;;;;15.89;100.00;99963.72;5095408;28;20219;-74
2021/09/07 01:35:13;;;;;;;13.80;12.23;;;;;;;15.90;100.00;99976.34;5095135;28;20227;-73
2021/09/07 01:37:40;;;;;;;12.93;11.63;;;;;;;15.85;100.00;99970.34;5095450;28;20188;-73
2021/09/07 01:40:09;;;;;;;15.77;12.60;;;;;;;15.81;100.00;99968.88;5094975;28;20206;-73
2021/09/07 01:42:38;;;;;;;16.00;12.23;;;;;;;15.69;100.00;99970.59;5094465;28;20188;-73
2021/09/07 01:45:05;;;;;;;14.10;12.18;;;;;;;15.80;100.00;99973.41;5095489;28;20204;-73
2021/09/07 01:47:31;;;;;;;15.35;12.25;;;;;;;15.80;100.00;99969.84;5094845;28;20595;-73
2021/09/07 01:49:58;;;;;;;13.93;11.02;;;;;;;16.01;99.55;99968.25;5095186;28;20282;-73
2021/09/07 01:52:24;;;;;;;13.98;11.50;;;;;;;16.08;98.05;99965.94;5095163;28;20188;-73
2021/09/07 01:54:51;;;;;;;13.48;12.05;;;;;;;16.02;97.73;99969.97;5094890;28;20200;-73
2021/09/07 01:57:18;;;;;;;16.35;13.07;;;;;;;15.80;99.87;99973.41;5095156;28;20531;-73
2021/09/07 01:59:46;;;;;;;12.25;10.95;;;;;;;15.74;100.00;99975.75;5095056;28;20614;-73
2021/09/07 02:02:13;;;;;;;13.68;11.80;;;;;;;15.67;100.00;99974.41;5092834;28;20560;-73
2021/09/07 02:04:40;;;;;;;13.00;11.68;;;;;;;15.60;100.00;99973.97;5074277;28;20211;-73
2021/09/07 02:07:06;;;;;;;14.18;12.68;;;;;;;15.53;100.00;99978.13;5094858;28;20199;-74
2021/09/07 02:09:33;;;;;;;14.95;11.38;;;;;;;15.63;100.00;99977.34;5094926;28;20626;-73
2021/09/07 02:12:00;;;;;;;13.82;12.43;;;;;;;15.70;100.00;99976.91;5094821;28;20537;-73
2021/09/07 02:14:26;;;;;;;12.82;11.35;;;;;;;15.82;99.43;99971.44;5080496;28;20200;-73
2021/09/07 02:16:54;;;;;;;14.55;11.68;;;;;;;15.69;99.78;99973.28;5074481;28;20614;-73
2021/09/07 02:19:21;;;;;;;14.65;12.07;;;;;;;15.70;100.00;99975.06;5074049;28;20187;-72
2021/09/07 02:21:47;;;;;;;14.23;12.52;;;;;;;15.93;97.88;99973.38;5074042;28;20185;-74
2021/09/07 02:24:14;;;;;;;14.20;12.30;;;;;;;15.87;97.92;99973.81;5074240;28;20639;-73
2021/09/07 02:26:41;;;;;;;16.55;11.95;;;;;;;15.94;97.43;99966.97;5074306;28;20200;-72
2021/09/07 02:29:08;;;;;;;12.68;11.38;;;;;;;15.98;96.97;99965.75;5074507;28;20274;-72
2021/09/07 02:31:35;;;;;;;14.27;12.05;;;;;;;15.94;97.17;99964.25;5074116;28;20523;-72
2021/09/07 02:34:03;;;;;;;13.30;11.73;;;;;;;16.02;96.48;99964.53;5073975;28;20185;-73
2021/09/07 02:36:30;;;;;;;13.23;11.95;;;;;;;15.99;96.13;99972.94;5074146;28;20677;-73
2021/09/07 02:38:56;;;;;;;15.90;12.18;;;;;;;15.99;95.98;99969.34;5074082;28;20692;-73
2021/09/07 02:41:23;;;;;;;13.23;11.65;;;;;;;15.94;95.85;99966.09;5074012;28;20207;-73
2021/09/07 02:43:49;;;;;;;19.25;12.82;;;;;;;15.80;97.09;99967.13;5082324;28;20693;-73
2021/09/07 02:46:16;;;;;;;15.60;11.52;;;;;;;15.80;97.31;99967.97;5093805;28;20194;-74
2021/09/07 02:48:43;;;;;;;12.80;11.50;;;;;;;15.75;97.72;99961.16;5093978;28;20208;-74
2021/09/07 02:51:11;;;;;;;15.35;11.65;;;;;;;15.80;97.15;99961.69;5093912;28;20275;-73
2021/09/07 02:53:37;;;;;;;18.80;11.45;;;;;;;15.81;96.74;99958.88;5093638;28;20184;-74
2021/09/07 02:56:04;;;;;;;13.02;11.07;;;;;;;15.77;96.50;99964.63;5094062;28;20296;-73
2021/09/07 02:58:31;;;;;;;13.75;11.52;;;;;;;15.73;96.58;99966.69;5094163;28;20184;-73
2021/09/07 03:00:58;;;;;;;15.75;12.10;;;;;;;15.70;96.42;99958.75;5093610;28;20184;-73
2021/09/07 03:03:24;;;;;;;13.27;10.80;;;;;;;15.71;96.83;99963.22;5093684;28;20543;-73
2021/09/07 03:05:51;;;;;;;14.63;12.10;;;;;;;15.63;96.72;99954.78;5093767;28;20296;-73
2021/09/07 03:08:19;;;;;;;14.40;12.15;;;;;;;15.73;96.57;99961.28;5093682;28;20184;-73
2021/09/07 03:10:46;;;;;;;13.93;10.93;;;;;;;15.73;96.66;99947.69;5093644;28;20196;-74
2021/09/07 03:13:13;;;;;;;13.15;11.40;;;;;;;15.61;97.37;99956.72;5092994;28;20191;-74
2021/09/07 03:15:41;;;;;;;17.02;11.98;;;;;;;15.73;96.31;99958.56;5093626;28;20235;-72
2021/09/07 03:18:08;;;;;;;13.43;11.30;;;;;;;15.81;96.24;99958.00;5093723;28;20180;-73
2021/09/07 03:20:34;;;;;;;17.73;12.35;;;;;;;15.77;95.77;99953.78;5093312;28;20216;-73
2021/09/07 03:23:01;;;;;;;15.00;12.23;;;;;;;15.62;96.63;99943.06;5093263;28;20586;-74
2021/09/07 03:25:29;;;;;;;13.05;11.57;;;;;;;15.74;95.88;99944.03;5093508;28;20279;-73
2021/09/07 03:27:55;;;;;;;13.70;11.50;;;;;;;15.77;95.52;99945.63;5093552;28;20271;-74
2021/09/07 03:30:23;;;;;;;15.20;11.18;;;;;;;15.55;96.58;99949.88;5093285;28;20180;-73
2021/09/07 03:32:49;;;;;;;14.93;11.93;;;;;;;15.46;97.47;99945.13;5093246;28;20192;-74
2021/09/07 03:35:16;;;;;;;12.85;11.13;;;;;;;15.45;98.08;99939.84;5093780;28;20198;-74
2021/09/07 03:37:43;;;;;;;14.07;12.68;;;;;;;15.50;97.36;99946.66;5093337;28;20198;-73
2021/09/07 03:40:11;;;;;;;15.18;12.10;;;;;;;15.40;97.80;99942.88;5093178;28;20188;-74
2021/09/07 03:42:39;;;;;;;14.05;12.55;;;;;;;15.57;96.68;99936.22;5093350;28;20206;-74
2021/09/07 03:45:08;;;;;;;13.25;11.85;;;;;;;15.55;95.78;99935.47;5092409;28;20204;-74
2021/09/07 03:47:35;;;;;;;13.40;11.38;;;;;;;15.43;96.59;99932.66;5093425;28;20680;-74
2021/09/07 03:50:02;;;;;;;15.13;12.30;;;;;;;15.47;96.20;99940.56;5093061;28;20286;-73
2021/09/07 03:52:28;;;;;;;12.88;11.57;;;;;;;15.35;97.64;99937.81;5093215;28;20227;-74
2021/09/07 03:54:56;;;;;;;14.18;12.38;;;;;;;15.21;99.75;99937.91;5093465;28;20227;-73
2021/09/07 03:57:23;;;;;;;13.30;11.90;;;;;;;15.16;100.00;99934.66;5093074;28;20204;-73
2021/09/07 03:59:51;;;;;;;14.20;12.60;;;;;;;15.23;99.80;99939.53;5093411;28;20538;-74
2021/09/07 04:02:17;;;;;;;15.45;12.25;;;;;;;15.23;100.00;99931.38;5093086;28;20566;-73
2021/09/07 04:04:44;;;;;;;23.20;13.63;;;;;;;15.27;100.00;99940.19;5092814;28;20200;-74
2021/09/07 04:07:11;;;;;;;14.90;13.13;;;;;;;15.19;100.00;99934.44;5096404;28;20215;-73
2021/09/07 04:09:38;;;;;;;14.75;11.40;;;;;;;15.35;99.55;99936.91;5097266;28;20242;-73
2021/09/07 04:12:05;;;;;;;17.13;12.32;;;;;;;15.44;98.57;99936.22;5096828;28;20199;-73
2021/09/07 04:14:32;;;;;;;13.32;11.93;;;;;;;15.41;98.34;99942.75;5096260;28;20187;-73
2021/09/07 04:17:01;;;;;;;16.80;13.48;;;;;;;15.37;98.46;99938.53;5097042;28;20199;-73
2021/09/07 04:19:28;;;;;;;17.08;12.73;;;;;;;15.46;98.00;99941.56;5097023;28;20184;-72
2021/09/07 04:21:55;;;;;;;17.48;13.60;;;;;;;15.33;98.83;99941.56;5096923;28;20788;-73
2021/09/07 04:24:22;;;;;;;17.23;13.20;;;;;;;15.32;99.28;99939.84;5096668;28;20313;-73
2021/09/07 04:26:48;;;;;;;18.45;13.00;;;;;;;15.30;100.00;99941.81;5096276;28;20227;-74
2021/09/07 04:29:15;;;;;;;17.83;12.90;;;;;;;15.45;98.96;99943.41;5096819;28;20195;-73
2021/09/07 04:31:43;;;;;;;16.55;13.25;;;;;;;15.47;98.19;99937.84;5096341;28;20654;-74
2021/09/07 04:34:11;;;;;;;13.13;11.73;;;;;;;15.57;97.37;99938.94;5096468;28;20184;-74
2021/09/07 04:36:37;;;;;;;16.73;13.32;;;;;;;15.71;96.01;99936.09;5096323;28;20188;-74
2021/09/07 04:39:04;;;;;;;15.30;12.30;;;;;;;15.76;95.23;99933.91;5096185;28;20210;-74
2021/09/07 04:41:31;;;;;;;13.65;11.38;;;;;;;15.60;96.03;99933.25;5096477;28;20187;-73
2021/09/07 04:43:58;;;;;;;14.82;12.85;;;;;;;15.78;94.84;99936.50;5096424;28;20385;-72
2021/09/07 04:46:25;;;;;;;18.33;12.98;;;;;;;15.72;94.91;99929.69;5095892;28;20271;-73
2021/09/07 04:48:54;;;;;;;15.55;12.68;;;;;;;15.54;95.77;99939.16;5096020;28;20298;-74
2021/09/07 04:51:23;;;;;;;15.68;12.40;;;;;;;15.58;96.14;99944.25;5096314;28;20188;-72
2021/09/07 04:53:50;;;;;;;14.32;12.38;;;;;;;15.64;95.48;99941.06;5096257;28;20299;-73
2021/09/07 04:56:17;;;;;;;15.75;13.00;;;;;;;15.57;95.29;99939.78;5095545;28;20290;-74
2021/09/07 04:58:44;;;;;;;13.32;11.93;;;;;;;15.61;95.04;99941.31;5106244;28;20398;-74
2021/09/07 05:01:13;;;;;;;20.20;13.82;;;;;;;15.54;95.53;99941.88;5095205;28;20200;-74
2021/09/07 05:03:40;;;;;;;19.15;14.15;;;;;;;15.66;94.62;99937.38;5095282;28;20235;-73
2021/09/07 05:06:07;;;;;;;15.73;12.95;;;;;;;15.52;94.94;99949.25;5095730;28;20704;-73
2021/09/07 05:08:35;;;;;;;14.18;11.52;;;;;;;15.58;94.33;99951.50;5095672;28;20224;-73
2021/09/07 05:11:01;;;;;;;18.90;15.35;;;;;;;15.51;94.55;99955.66;5095780;28;20221;-73
2021/09/07 05:13:28;;;;;;;27.35;13.25;;;;;;;15.35;95.39;99950.47;5095388;28;20283;-73
2021/09/07 05:15:55;;;;;;;17.85;12.90;;;;;;;15.31;95.83;99948.97;5082664;28;20611;-72
2021/09/07 05:18:21;;;;;;;14.40;12.05;;;;;;;15.46;94.66;99947.00;5074252;28;20223;-73
2021/09/07 05:20:48;;;;;;;19.98;13.10;;;;;;;15.42;94.30;99949.03;5075142;28;20212;-74
2021/09/07 05:23:15;;;;;;;15.82;13.00;;;;;;;15.37;94.96;99943.09;5074629;28;20247;-73
2021/09/07 05:25:43;;;;;;;14.98;13.02;;;;;;;15.45;94.59;99946.13;5094709;28;20361;-73
2021/09/07 05:28:09;;;;;;;15.35;12.75;;;;;;;15.50;93.86;99951.22;5095421;28;20188;-73
2021/09/07 05:30:36;;;;;;;15.45;12.93;;;;;;;15.52;94.19;99955.56;5094356;28;20195;-73
2021/09/07 05:33:03;;;;;;;19.52;14.45;;;;;;;15.44;95.92;99952.50;5095051;28;20652;-73
2021/09/07 05:35:29;;;;;;;18.50;13.68;;;;;;;15.66;95.48;99967.25;5094339;28;20611;-75
2021/09/07 05:37:56;;;;;;;18.50;14.75;;;;;;;15.81;94.38;99966.16;5094444;28;20276;-73
2021/09/07 05:40:22;;;;;;;25.60;17.00;;;;;;;15.83;94.79;99972.34;5094563;28;20188;-73
2021/09/07 05:42:50;;;;;;;20.15;15.05;;;;;;;15.89;94.31;99971.88;5094420;28;20188;-73
2021/09/07 05:45:18;;;;;;;30.40;15.68;;;;;;;16.03;93.68;99971.72;5094573;28;20262;-74
2021/09/07 05:47:45;;;;;;;23.70;15.80;;;;;;;16.15;92.53;99967.22;5094799;28;20599;-74
2021/09/07 05:50:14;;;;;;;21.83;15.30;;;;;;;16.09;93.19;99973.09;5094808;28;20184;-74
2021/09/07 05:52:41;;;;;;;23.23;15.90;;;;;;;16.17;92.25;99969.81;5094200;28;20196;-74
2021/09/07 05:55:09;;;;;;;18.75;15.15;;;;;;;16.20;91.87;99972.28;5094376;28;20184;-73
2021/09/07 05:57:35;;;;;;;20.70;16.35;;;;;;;16.11;92.56;99971.13;5094751;28;20266;-74
2021/09/07 06:00:05;;;;;;;17.80;14.45;;;;;;;16.10;92.54;99972.13;5094639;28;20204;-73
2021/09/07 06:02:31;;;;;;;23.13;15.60;;;;;;;16.12;92.46;99970.13;5093553;28;20685;-73
2021/09/07 06:04:58;;;;;;;17.35;15.20;;;;;;;16.11;92.49;99971.13;5093855;28;20681;-73
2021/09/07 06:07:25;;;;;;;17.75;15.65;;;;;;;16.03;93.62;99974.44;5093905;28;20294;-74
2021/09/07 06:09:51;;;;;;;21.65;15.68;;;;;;;16.03;93.60;99979.88;5093473;28;20604;-73
2021/09/07 06:12:18;;;;;;;21.00;17.42;;;;;;;16.23;92.51;99981.06;5093714;28;20188;-74
2021/09/07 06:14:45;;;;;;;17.63;15.73;;;;;;;16.25;92.31;99986.38;5094010;28;20191;-74
2021/09/07 06:17:13;;;;;;;23.40;18.52;;;;;;;16.40;91.46;99987.94;5094479;28;20206;-73
2021/09/07 06:19:39;;;;;;;21.42;15.40;;;;;;;16.53;90.39;99987.88;5093829;28;20275;-74
2021/09/07 06:22:06;;;;;;;16.73;14.55;;;;;;;16.77;88.01;99985.09;5094243;28;20666;-74
2021/09/07 06:24:33;;;;;;;20.58;16.55;;;;;;;16.55;89.40;99991.34;5094233;28;20257;-74
2021/09/07 06:26:59;;;;;;;19.85;16.40;;;;;;;16.56;90.10;99994.94;5093964;28;20199;-74
2021/09/07 06:29:26;;;;;;;18.30;14.95;;;;;;;16.63;89.41;99993.47;5093283;28;20290;-75
2021/09/07 06:31:53;;;;;;;17.45;15.60;;;;;;;16.74;89.12;99998.94;5093593;28;20622;-73
2021/09/07 06:34:24;;;;;;;18.65;15.82;;;;;;;17.07;86.99;100000.03;5093861;28;20195;-74
2021/09/07 06:36:51;;;;;;;17.90;15.30;;;;;;;17.08;85.81;99999.06;5094180;28;20506;-73
2021/09/07 06:39:18;;;;;;;21.67;16.55;;;;;;;17.15;86.19;99994.88;5093791;28;20214;-73
2021/09/07 06:41:44;;;;;;;17.30;14.63;;;;;;;17.24;85.25;99999.56;5092878;28;20193;-73
2021/09/07 06:44:11;;;;;;;20.08;16.05;;;;;;;17.40;84.50;99999.22;5093372;28;20204;-74
2021/09/07 06:46:38;;;;;;;16.88;15.07;;;;;;;17.39;84.17;99997.50;5094007;28;20291;-73
2021/09/07 06:49:05;;;;;;;20.85;16.48;;;;;;;17.41;83.50;100000.06;5093941;28;20618;-73
2021/09/07 06:51:33;;;;;;;19.05;15.82;;;;;;;17.70;82.06;100001.34;5093894;28;20204;-72
2021/09/07 06:54:00;;;;;;;18.58;15.00;;;;;;;17.70;82.12;100009.50;5093222;28;20196;-74
2021/09/07 06:56:27;;;;;;;19.25;16.17;;;;;;;17.64;82.12;100003.69;5093527;28;20190;-74
2021/09/07 06:58:54;;;;;;;21.50;17.67;;;;;;;17.63;82.53;100010.09;5094138;28;20209;-74
2021/09/07 07:01:20;;;;;;;18.38;14.63;;;;;;;17.72;82.60;100007.50;5093318;28;20207;-74
2021/09/07 07:03:47;;;;;;;27.55;14.57;;;;;;;17.92;81.53;100015.94;5093082;28;20240;-73
2021/09/07 07:06:13;;;;;;;21.40;16.38;;;;;;;18.15;80.28;100011.28;5092913;28;20303;-73
2021/09/07 07:08:41;;;;;;;19.25;16.20;;;;;;;18.37;78.73;100014.97;5093745;28;20531;-74
2021/09/07 07:11:08;;;;;;;23.13;15.40;;;;;;;18.73;76.63;100021.88;5093414;28;20620;-73
2021/09/07 07:13:35;;;;;;;20.83;17.00;;;;;;;19.00;75.08;100017.81;5093522;28;20198;-73
2021/09/07 07:16:01;;;;;;;16.90;14.50;;;;;;;19.30;73.63;100012.38;5092988;28;20241;-73
2021/09/07 07:18:28;;;;;;;16.83;13.90;;;;;;;19.53;72.01;100014.94;5093315;28;20186;-74
2021/09/07 07:20:54;;;;;;;18.48;15.10;;;;;;;19.61;71.52;100020.59;5092723;28;20237;-74
2021/09/07 07:23:21;;;;;;;22.35;15.45;;;;;;;19.45;71.94;100022.97;5093180;28;21031;-74
2021/09/07 07:25:49;;;;;;;17.50;15.18;;;;;;;19.66;71.51;100023.78;5093081;28;20211;-73
2021/09/07 07:28:16;;;;;;;20.67;16.00;;;;;;;19.59;72.08;100025.34;5093016;28;20235;-74
2021/09/07 07:30:43;;;;;;;16.10;13.67;;;;;;;19.82;70.82;100019.72;5092855;28;20231;-74
2021/09/07 07:33:10;;;;;;;20.42;15.50;;;;;;;20.01;69.90;100030.69;5075577;28;20530;-74
2021/09/07 07:35:37;;;;;;;16.50;13.95;;;;;;;19.95;70.22;100025.81;5084017;28;20209;-73
2021/09/07 07:38:03;;;;;;;17.27;15.30;;;;;;;19.85;70.71;100036.69;5092867;28;20274;-74
2021/09/07 07:40:30;;;;;;;18.63;16.42;;;;;;;20.01;70.80;100025.22;5093307;28;20524;-73
2021/09/07 07:42:58;;;;;;;19.58;16.55;;;;;;;20.13;70.33;100031.47;5097339;28;20188;-73
2021/09/07 07:45:25;;;;;;;23.25;16.30;;;;;;;20.12;69.87;100033.31;5096637;28;20199;-74
2021/09/07 07:47:51;;;;;;;19.52;15.60;;;;;;;20.27;70.22;100032.94;5096838;28;20242;-74
2021/09/07 07:50:18;;;;;;;20.03;15.63;;;;;;;20.59;68.27;100027.22;5096543;28;20274;-74
2021/09/07 07:52:44;;;;;;;21.63;15.87;;;;;;;20.71;67.96;100037.03;5097119;28;20457;-73
2021/09/07 07:55:27;;;;;;;18.97;13.70;;;;;;;20.47;68.87;100040.16;5096996;28;20930;-75
2021/09/07 07:57:54;;;;;;;22.27;15.17;;;;;;;20.52;69.01;100034.25;5096898;28;20512;-74
2021/09/07 08:00:22;;;;;;;16.40;14.23;;;;;;;20.67;67.58;100031.97;5097168;28;20509;-75
2021/09/07 08:02:48;;;;;;;19.40;16.10;;;;;;;20.88;67.30;100029.97;5096628;28;20944;-74
2021/09/07 08:05:15;;;;;;;23.57;15.37;;;;;;;21.07;66.88;100033.69;5096438;28;20556;-74
2021/09/07 08:07:42;;;;;;;15.63;13.90;;;;;;;21.31;65.79;100036.81;5097114;28;20544;-74
2021/09/07 08:10:09;;;;;;;20.60;15.37;;;;;;;21.54;64.52;100031.03;5096335;28;20499;-75
2021/09/07 08:12:36;;;;;;;20.00;15.60;;;;;;;21.67;64.05;100034.31;5095446;28;20467;-74
2021/09/07 08:15:03;;;;;;;21.07;15.27;;;;;;;21.83;63.07;100031.78;5094509;28;20442;-74
2021/09/07 08:17:31;;;;;;;20.20;15.47;;;;;;;21.97;62.59;100035.88;5094826;28;20528;-75
2021/09/07 08:19:57;;;;;;;15.77;13.93;;;;;;;22.21;61.38;100029.88;5095721;28;20533;-75
2021/09/07 08:22:35;;;;;;;19.70;14.67;;;;;;;22.30;61.13;100039.06;5096072;28;20876;-74
2021/09/07 08:25:02;;;;;;;20.93;14.07;;;;;;;22.37;60.62;100034.69;5095796;28;20481;-74
2021/09/07 08:27:29;;;;;;;18.80;14.10;;;;;;;22.27;60.75;100039.34;5095379;28;20461;-76
2021/09/07 08:29:55;;;;;;;16.63;14.53;;;;;;;22.57;59.98;100043.66;5093386;28;20528;-76
2021/09/07 08:32:22;;;;;;;16.73;11.90;;;;;;;22.48;59.15;100039.09;5096450;28;20837;-75
2021/09/07 08:34:50;;;;;;;16.73;12.30;;;;;;;22.24;60.36;100043.28;5096556;28;20432;-75
2021/09/07 08:37:16;;;;;;;16.83;12.83;;;;;;;21.97;60.99;100048.75;5096488;28;20844;-75
2021/09/07 08:39:43;;;;;;;16.13;13.13;;;;;;;22.13;60.68;100040.72;5095003;28;20422;-75
2021/09/07 08:42:12;;;;;;;14.80;11.50;;;;;;;22.12;60.36;100040.88;5095649;28;20881;-75
2021/09/07 08:44:45;;;;;;;13.67;12.00;;;;;;;22.31;59.82;100048.16;5106346;28;20486;-76
2021/09/07 08:47:13;;;;;;;15.80;13.27;;;;;;;22.47;58.70;100051.06;5114581;28;20417;-75
2021/09/07 08:49:40;;;;;;;13.47;12.07;;;;;;;22.63;58.29;100047.63;5112205;28;20506;-77
2021/09/07 08:52:08;;;;;;;15.87;12.80;;;;;;;22.74;57.77;100047.41;5115481;28;20437;-76
2021/09/07 08:54:36;;;;;;;15.40;12.67;;;;;;;23.09;57.45;100054.81;5114976;28;20934;-75
2021/09/07 08:57:03;;;;;;;13.27;11.47;;;;;;;22.74;57.73;100050.16;5114502;28;20453;-75
2021/09/07 08:59:31;;;;;;;14.17;11.40;;;;;;;22.58;58.07;100053.59;5114618;28;20448;-75
2021/09/07 09:01:59;;;;;;;13.90;11.97;;;;;;;22.71;57.95;100057.84;5114627;28;20453;-76
2021/09/07 09:04:27;;;;;;;13.00;11.67;;;;;;;22.75;58.24;100045.50;5114258;28;20417;-76
2021/09/07 09:06:54;;;;;;;12.97;11.63;;;;;;;22.98;57.66;100062.41;5115587;28;20476;-75
2021/09/07 09:09:23;;;;;;;20.27;12.30;;;;;;;23.04;57.68;100065.41;5114424;28;20516;-75
2021/09/07 09:11:51;;;;;;;18.40;11.60;;;;;;;23.50;56.77;100055.09;5102824;28;20426;-75
2021/09/07 09:14:36;;;;;;;15.23;12.27;;;;;;;23.77;55.46;100047.75;5110219;28;20485;-76
2021/09/07 09:17:21;;;;;;;13.67;11.63;;;;;;;23.76;55.30;100050.66;5114675;28;20918;-75
2021/09/07 09:19:49;;;;;;;13.60;11.00;;;;;;;23.75;55.32;100057.19;5114618;28;20437;-75
2021/09/07 09:22:16;;;;;;;13.73;11.00;;;;;;;23.72;55.35;100052.81;5107323;28;20445;-75
2021/09/07 09:24:44;;;;;;;13.23;10.97;;;;;;;23.85;54.64;100046.91;5093541;28;20448;-75
2021/09/07 09:27:11;;;;;;;11.97;10.77;;;;;;;23.89;54.67;100045.56;5103877;28;20472;-75
2021/09/07 09:29:40;;;;;;;13.83;11.27;;;;;;;24.19;54.03;100044.13;5097745;28;20487;-75
2021/09/07 09:32:09;;;;;;;14.37;11.13;;;;;;;24.30;53.38;100046.56;5094191;28;20804;-74
2021/09/07 09:34:37;;;;;;;23.30;13.10;;;;;;;24.22;53.07;100035.56;5094179;28;20800;-75
2021/09/07 09:37:06;;;;;;;12.67;11.37;;;;;;;24.18;53.17;100047.06;5106884;28;20430;-75
2021/09/07 09:39:41;;;;;;;13.23;11.10;;;;;;;24.01;52.64;100046.13;5093266;28;20496;-75
2021/09/07 09:42:10;;;;;;;11.03;9.70;;;;;;;23.77;53.76;100042.25;5093437;28;20511;-74
2021/09/07 09:44:38;;;;;;;12.67;11.03;;;;;;;24.02;53.27;100036.88;5092971;28;20499;-75
2021/09/07 09:47:05;;;;;;;11.43;9.93;;;;;;;24.57;51.84;100041.00;5093238;28;20573;-75
2021/09/07 09:49:32;;;;;;;14.03;11.63;;;;;;;24.84;51.50;100042.59;5093307;28;21200;-75
2021/09/07 09:52:03;;;;;;;11.30;10.10;;;;;;;24.84;50.73;100031.59;5092712;28;20929;-75
2021/09/07 09:54:32;;;;;;;12.50;10.27;;;;;;;24.70;51.23;100031.22;5093202;28;20418;-75
2021/09/07 09:56:59;;;;;;;11.03;9.97;;;;;;;25.00;50.20;100039.84;5093264;28;20418;-75
2021/09/07 09:59:28;;;;;;;11.93;9.87;;;;;;;24.98;49.95;100039.16;5092798;28;20857;-75
2021/09/07 10:01:56;;;;;;;12.00;10.80;;;;;;;24.69;50.75;100031.38;5092007;28;20934;-75
2021/09/07 10:04:23;;;;;;;10.33;9.23;;;;;;;25.01;50.20;100033.31;5091639;28;20482;-75
2021/09/07 10:06:52;;;;;;;10.97;9.87;;;;;;;24.77;50.53;100031.41;5092341;28;20504;-75
2021/09/07 10:09:19;;;;;;;10.50;9.40;;;;;;;24.94;50.32;100030.41;5091956;28;20425;-75
2021/09/07 10:11:51;;;;;;;11.00;9.83;;;;;;;25.07;50.44;100027.09;5091695;28;20433;-74
2021/09/07 10:14:20;;;;;;;12.83;9.60;;;;;;;25.35;49.38;100024.03;5091365;28;20429;-74
2021/09/07 10:16:55;;;;;;;13.00;9.70;;;;;;;25.19;49.67;100019.41;5092235;28;20521;-76
2021/09/07 10:19:43;;;;;;;11.10;10.00;;;;;;;25.03;49.94;100017.44;5092170;28;20437;-75
2021/09/07 10:24:58;;;;;;;13.03;11.73;;;;;;;25.22;49.31;100015.44;5092297;28;20414;-74
2021/09/07 10:27:57;;;;;;;13.00;9.93;;;;;;;25.21;49.21;100008.19;5092319;28;20472;-75
2021/09/07 10:30:58;;;;;;;13.57;10.03;;;;;;;24.98;50.16;100006.09;5091024;28;20469;-75
2021/09/07 10:33:37;;;;;;;12.57;10.13;;;;;;;25.05;50.38;100004.38;5091950;28;20426;-75
2021/09/07 10:36:06;;;;;;;10.43;9.33;;;;;;;25.28;50.22;100007.34;5092192;28;20533;-75
2021/09/07 10:38:37;;;;;;;15.53;9.67;;;;;;;25.38;49.91;99993.34;5092253;28;21160;-75
2021/09/07 10:41:04;;;;;;;9.70;8.70;;;;;;;25.35;50.00;100001.97;5092846;28;20423;-74
2021/09/07 10:43:53;;;;;;;11.03;9.70;;;;;;;25.48;49.94;99996.75;5092557;28;20423;-75
2021/09/07 10:46:38;;;;;;;13.10;10.87;;;;;;;26.00;48.07;99985.25;5092493;28;20462;-75
2021/09/07 10:49:19;;;;;;;14.03;9.30;;;;;;;25.85;47.64;99978.72;5076944;28;20453;-74
2021/09/07 10:52:12;;;;;;;10.50;9.40;;;;;;;25.67;47.54;99980.88;5092644;28;20434;-75
2021/09/07 10:54:47;;;;;;;9.10;8.20;;;;;;;25.92;46.44;99982.53;5092139;28;20485;-73
2021/09/07 10:57:52;;;;;;;14.00;9.87;;;;;;;26.11;45.45;99972.06;5093428;28;20505;-75
2021/09/07 11:00:38;;;;;;;14.47;12.43;;;;;;;26.59;44.71;99981.09;5092953;28;20535;-75
2021/09/07 11:03:07;;;;;;;15.17;9.93;;;;;;;26.78;44.13;99975.09;5110146;28;20562;-74
2021/09/07 11:05:44;;;;;;;10.50;9.50;;;;;;;26.53;44.03;99968.88;5113079;28;20879;-74
2021/09/07 11:08:12;;;;;;;9.80;8.90;;;;;;;26.49;43.65;99961.16;5112853;28;20820;-75
2021/09/07 11:10:41;;;;;;;12.70;9.63;;;;;;;26.75;43.84;99960.78;5112413;28;20516;-75
2021/09/07 11:13:10;;;;;;;13.10;8.53;;;;;;;26.90;43.19;99961.69;5113074;28;20933;-74
2021/09/07 11:15:38;;;;;;;17.33;10.10;;;;;;;27.19;42.92;99954.53;5094540;28;21094;-74
2021/09/07 11:18:06;;;;;;;11.37;10.17;;;;;;;27.33;41.88;99948.16;5092307;28;21355;-76
2021/09/07 11:20:35;;;;;;;9.73;8.20;;;;;;;27.39;39.52;99950.19;5092207;28;20513;-74
2021/09/07 11:23:11;;;;;;;10.43;9.33;;;;;;;27.16;38.52;99957.69;5089053;28;20525;-75